Time;durP1;ratioP1;P1;durP2;ratioP2;P2;SDS_P1;SDS_P2;PMS_P1;PMS_P2;Temp;Humidity;BMP_temperature;BMP_pressure;BME280_temperature;BME280_humidity;BME280_pressure;Samples;Min_cycle;Max_cycle;Signal;HPM_P1;HPM_P2
2021/07/20 00:02:24;;;;;;;8.50;7.60;;;;;;;25.85;56.71;96795.88;126739;1097;62629;-86
2021/07/20 00:04:51;;;;;;;8.10;7.30;;;;;;;25.87;56.27;96799.14;126619;1098;62587;-85
2021/07/20 00:07:18;;;;;;;8.63;7.73;;;;;;;25.88;56.32;96800.77;126618;1098;62655;-84
2021/07/20 00:09:46;;;;;;;8.03;7.23;;;;;;;25.87;56.51;96805.31;126669;1098;62669;-85
2021/07/20 00:12:13;;;;;;;8.97;7.63;;;;;;;25.88;56.40;96796.26;126685;1098;62937;-86
2021/07/20 00:14:40;;;;;;;8.73;7.83;;;;;;;25.90;56.46;96798.70;126696;1098;62597;-86
2021/07/20 00:17:07;;;;;;;8.30;7.40;;;;;;;25.89;56.65;96787.17;126819;1098;62626;-86
2021/07/20 00:19:34;;;;;;;8.80;7.90;;;;;;;25.91;56.51;96789.63;126731;1098;62617;-85
2021/07/20 00:22:02;;;;;;;7.70;6.90;;;;;;;25.92;56.46;96774.38;126594;1098;62625;-86
2021/07/20 00:24:29;;;;;;;8.45;7.55;;;;;;;25.92;56.66;96777.86;126636;1098;62622;-85
2021/07/20 00:26:56;;;;;;;9.23;7.53;;;;;;;25.93;56.44;96773.33;126726;1096;62588;-85
2021/07/20 00:29:23;;;;;;;8.20;7.40;;;;;;;25.93;56.23;96776.84;126697;1098;62667;-84
2021/07/20 00:31:50;;;;;;;8.27;7.40;;;;;;;25.96;56.33;96770.20;126632;1098;62635;-84
2021/07/20 00:34:17;;;;;;;7.90;7.10;;;;;;;25.94;56.49;96772.30;126848;1098;62722;-82
2021/07/20 00:36:45;;;;;;;7.53;6.73;;;;;;;25.93;56.28;96771.48;126584;1098;62624;-85
2021/07/20 00:39:12;;;;;;;7.77;6.97;;;;;;;25.92;56.45;96763.66;126713;1098;62647;-85
2021/07/20 00:41:39;;;;;;;8.20;7.40;;;;;;;25.90;56.21;96762.03;126658;1098;62637;-84
2021/07/20 00:44:06;;;;;;;7.33;6.63;;;;;;;25.90;56.16;96751.33;126681;1098;62664;-86
2021/07/20 00:46:33;;;;;;;7.03;6.33;;;;;;;25.90;56.25;96750.51;126817;1096;62872;-84
2021/07/20 00:49:00;;;;;;;7.37;6.67;;;;;;;25.88;56.29;96756.10;126681;1098;62575;-84
2021/07/20 00:51:27;;;;;;;7.60;6.90;;;;;;;25.86;56.40;96755.48;126679;1096;62550;-84
2021/07/20 00:53:55;;;;;;;7.50;6.80;;;;;;;25.85;56.24;96761.89;126595;1098;62647;-84
2021/07/20 00:56:22;;;;;;;7.27;6.57;;;;;;;25.82;56.18;96764.19;126654;1098;62623;-84
2021/07/20 00:58:49;;;;;;;7.60;6.80;;;;;;;25.80;56.47;96769.78;126726;1097;62779;-85
2021/07/20 01:01:16;;;;;;;8.07;6.80;;;;;;;25.79;56.32;96773.50;126665;1098;62696;-85
2021/07/20 01:04:02;;;;;;;6.93;6.23;;;;;;;25.78;56.09;96771.84;126715;1096;62679;-84
2021/07/20 01:06:30;;;;;;;7.13;6.43;;;;;;;25.79;56.46;96770.83;126664;1096;62616;-84
2021/07/20 01:08:57;;;;;;;7.30;6.50;;;;;;;25.81;56.32;96767.91;126702;1098;62626;-85
2021/07/20 01:11:26;;;;;;;7.53;6.73;;;;;;;25.81;56.45;96763.38;126746;1098;62790;-84
2021/07/20 01:13:53;;;;;;;7.30;6.60;;;;;;;25.81;56.01;96765.23;126683;1098;62570;-84
2021/07/20 01:16:22;;;;;;;7.87;6.80;;;;;;;25.80;56.30;96761.75;126752;1098;62591;-86
2021/07/20 01:18:49;;;;;;;7.50;6.43;;;;;;;25.80;56.43;96751.05;126840;1098;62681;-85
2021/07/20 01:21:17;;;;;;;7.40;6.10;;;;;;;25.81;56.55;96752.67;126691;1097;62712;-85
2021/07/20 01:23:46;;;;;;;7.83;7.03;;;;;;;25.82;56.31;96748.95;126840;1098;62617;-85
2021/07/20 01:26:13;;;;;;;;;;;;;;;25.84;56.91;96744.20;126669;1098;62657;-85
2021/07/20 01:28:40;;;;;;;7.43;6.30;;;;;;;25.84;56.29;96746.88;126724;1098;62589;-85
2021/07/20 01:31:12;;;;;;;7.20;6.50;;;;;;;25.84;56.34;96740.70;126765;1098;62602;-86
2021/07/20 01:33:41;;;;;;;7.37;6.67;;;;;;;25.84;56.60;96736.17;126666;1098;62581;-85
2021/07/20 01:36:08;;;;;;;7.60;6.90;;;;;;;25.82;56.55;96738.23;126747;1098;62608;-84
2021/07/20 01:38:36;;;;;;;8.73;6.57;;;;;;;25.81;56.40;96741.96;126682;1098;62737;-85
2021/07/20 01:41:06;;;;;;;6.90;6.20;;;;;;;25.81;56.55;96741.15;127012;1098;62684;-93
2021/07/20 01:43:38;;;;;;;7.60;6.73;;;;;;;25.79;56.22;96744.06;126913;1098;62009;-90
2021/07/20 01:46:06;;;;;;;7.07;6.37;;;;;;;25.80;56.32;96750.23;126722;1098;62623;-90
2021/07/20 01:48:35;;;;;;;7.20;6.47;;;;;;;25.79;56.50;96749.41;126741;1098;62732;-90
2021/07/20 01:51:03;;;;;;;7.33;6.43;;;;;;;25.77;56.34;96754.16;126721;1098;62693;-90
2021/07/20 01:53:47;;;;;;;7.40;6.50;;;;;;;25.77;56.41;96762.19;126805;1098;62644;-90
2021/07/20 01:56:14;;;;;;;8.87;6.93;;;;;;;25.75;56.56;96764.25;126772;1098;62662;-93
2021/07/20 01:58:42;;;;;;;7.37;6.57;;;;;;;25.73;56.42;96774.34;126779;1098;62705;-91
2021/07/20 02:01:22;;;;;;;8.60;6.90;;;;;;;25.73;56.68;96792.27;126757;1098;62802;-89
2021/07/20 13:40:27;;;;;;;3.50;2.80;;;;;;;28.34;45.63;96771.72;127197;1095;62642;-89
2021/07/20 13:42:55;;;;;;;3.33;3.00;;;;;;;28.32;45.83;96768.41;126714;1095;62913;-87
2021/07/20 13:45:22;;;;;;;3.30;2.53;;;;;;;28.31;45.65;96772.16;126849;1095;62677;-88
2021/07/20 13:48:01;;;;;;;4.27;3.00;;;;;;;28.27;45.65;96775.56;126626;1095;62682;-87
2021/07/20 13:50:32;;;;;;;4.08;3.35;;;;;;;28.22;45.87;96778.16;126714;1095;62668;-87
2021/07/20 13:53:02;;;;;;;3.90;2.87;;;;;;;28.15;46.11;96775.61;126607;1095;62619;-87
2021/07/20 13:55:29;;;;;;;3.73;3.20;;;;;;;28.06;46.38;96783.23;126688;1095;62626;-89
2021/07/20 13:57:58;;;;;;;3.50;3.20;;;;;;;27.98;46.54;96778.22;127515;1095;62652;-87
2021/07/20 14:00:25;;;;;;;3.43;3.10;;;;;;;27.95;46.51;96777.88;127507;1095;62543;-88
2021/07/20 14:02:55;;;;;;;4.37;3.13;;;;;;;27.93;46.80;96793.42;127380;1096;62607;-90
2021/07/20 14:05:22;;;;;;;3.60;3.10;;;;;;;27.89;46.83;96791.20;127478;1095;62656;-87
2021/07/20 14:07:49;;;;;;;3.50;3.00;;;;;;;27.85;46.94;96790.03;127363;1095;62626;-89
2021/07/20 14:10:16;;;;;;;3.87;3.37;;;;;;;27.78;46.98;96793.89;127420;1095;62597;-90
2021/07/20 14:12:45;;;;;;;4.10;3.13;;;;;;;27.72;47.16;96797.52;127235;1095;62632;-90
2021/07/20 14:15:12;;;;;;;4.00;3.60;;;;;;;27.67;47.29;96804.38;127051;1095;62582;-90
2021/07/20 14:17:40;;;;;;;3.90;3.33;;;;;;;27.66;47.35;96808.12;127254;1095;62620;-88
2021/07/20 14:20:10;;;;;;;3.90;3.30;;;;;;;27.69;47.42;96812.22;127361;1095;62633;-90
2021/07/20 14:22:41;;;;;;;4.17;3.60;;;;;;;27.74;47.28;96806.17;127351;1095;62702;-88
2021/07/20 14:25:09;;;;;;;4.60;3.60;;;;;;;27.75;47.08;96800.56;127177;1095;63073;-87
2021/07/20 14:27:36;;;;;;;4.10;3.20;;;;;;;27.75;47.33;96805.93;127178;1095;62598;-88
2021/07/20 14:30:13;;;;;;;4.23;3.70;;;;;;;27.73;47.27;96807.20;127336;1095;62691;-88
2021/07/20 14:32:43;;;;;;;3.83;3.30;;;;;;;27.69;47.34;96828.33;127476;1095;62899;-89
2021/07/20 14:35:16;;;;;;;4.03;3.63;;;;;;;27.66;47.33;96823.41;127583;1095;61497;-88
2021/07/20 14:37:54;;;;;;;3.70;3.30;;;;;;;27.61;47.44;96825.98;127282;1095;62668;-88
2021/07/20 14:40:29;;;;;;;3.83;3.00;;;;;;;27.56;47.59;96839.30;127578;1095;62645;-88
2021/07/20 14:43:04;;;;;;;4.15;3.40;;;;;;;27.51;47.94;96852.59;127721;1095;62621;-89
2021/07/20 14:45:33;;;;;;;4.23;3.83;;;;;;;27.49;47.92;96849.31;127954;1095;62626;-92
2021/07/20 14:48:10;;;;;;;4.30;3.23;;;;;;;27.47;48.11;96846.05;127115;1095;62658;-90
2021/07/20 14:50:41;;;;;;;4.33;3.00;;;;;;;27.45;48.06;96853.51;126991;1095;62716;-89
2021/07/20 14:53:48;;;;;;;3.53;3.03;;;;;;;27.43;48.10;96850.25;127590;1095;62602;-89
2021/07/20 14:56:28;;;;;;;3.30;2.80;;;;;;;27.47;48.27;96846.05;128049;1095;62703;-90
2021/07/20 14:58:59;;;;;;;2.95;2.60;;;;;;;27.52;48.43;96846.17;127582;1095;62578;-89
2021/07/20 15:01:29;;;;;;;;;;;;;;;27.55;48.23;96845.72;127222;1095;62767;-89
2021/07/20 15:04:01;;;;;;;3.97;2.70;;;;;;;27.57;48.20;96847.11;127147;1095;62701;-88
2021/07/20 15:06:38;;;;;;;2.87;2.50;;;;;;;27.60;48.25;96859.25;127188;1095;62639;-88
2021/07/20 15:09:07;;;;;;;4.35;2.90;;;;;;;27.59;48.22;96847.70;127338;1095;62719;-89
2021/07/20 15:11:41;;;;;;;3.17;2.73;;;;;;;27.59;48.10;96861.13;127805;1095;62631;-88
2021/07/20 15:14:11;;;;;;;3.13;2.60;;;;;;;27.57;48.01;96860.52;127133;1095;62685;-89
2021/07/20 15:16:40;;;;;;;2.63;2.20;;;;;;;27.55;48.09;96857.27;127135;1095;62751;-89
2021/07/20 15:19:17;;;;;;;3.47;2.67;;;;;;;27.49;48.43;96852.81;126979;1095;62600;-88
2021/07/20 15:21:49;;;;;;;2.93;2.60;;;;;;;27.44;48.55;96859.93;127147;1095;62564;-89
2021/07/20 15:24:23;;;;;;;3.50;2.47;;;;;;;27.40;48.45;96851.52;127480;1095;62761;-89
2021/07/20 15:26:53;;;;;;;2.67;2.10;;;;;;;27.36;48.44;96856.55;127139;1095;62635;-91
2021/07/20 15:29:20;;;;;;;;;;;;;;;27.30;48.67;96860.14;127181;1095;62594;-91
2021/07/20 15:31:48;;;;;;;;;;;;;;;27.27;48.69;96865.98;127404;1095;62627;-90
2021/07/20 15:34:18;;;;;;;;;;;;;;;27.25;49.26;96867.25;127334;1095;62639;-90
2021/07/20 15:36:46;;;;;;;;;;;;;;;27.23;49.82;96872.05;127030;1095;62680;-90
2021/07/20 15:39:13;;;;;;;;;;;;;;;27.21;49.67;96869.57;126786;1095;62658;-88
2021/07/20 15:41:40;;;;;;;;;;;;;;;27.16;50.15;96867.58;126838;1096;62588;-90
2021/07/20 15:44:07;;;;;;;;;;;;;;;27.09;50.03;96861.52;126723;1098;62626;-91
2021/07/20 15:46:34;;;;;;;;;;;;;;;27.02;50.02;96857.25;126788;1098;62664;-93
2021/07/20 15:49:01;;;;;;;;;;;;;;;26.94;50.16;96870.98;126642;1098;62623;-92
2021/07/20 15:51:28;;;;;;;;;;;;;;;26.85;50.42;96874.01;126728;1095;62639;-92
2021/07/20 15:53:55;;;;;;;;;;;;;;;26.76;50.57;96872.69;126727;1098;62623;-96
2021/07/20 15:56:23;;;;;;;;;;;;;;;26.68;50.74;96870.31;126948;1098;62615;-89
2021/07/20 15:58:52;;;;;;;;;;;;;;;26.59;50.98;96869.80;126826;1098;62635;-88
2021/07/20 16:01:19;;;;;;;;;;;;;;;26.53;51.23;96876.08;126929;1097;62771;-89
2021/07/20 16:03:46;;;;;;;;;;;;;;;26.48;51.26;96867.05;126667;1098;62636;-89
2021/07/20 16:06:15;;;;;;;;;;;;;;;26.44;51.47;96869.39;126809;1095;62652;-90
2021/07/20 16:08:42;;;;;;;;;;;;;;;26.42;51.71;96866.07;126719;1095;63031;-91
2021/07/20 16:11:09;;;;;;;;;;;;;;;26.40;51.67;96876.20;126913;1098;62579;-91
2021/07/20 16:13:36;;;;;;;;;;;;;;;26.37;51.64;96874.78;126834;1098;62634;-90
2021/07/20 16:16:03;;;;;;;;;;;;;;;26.35;51.75;96876.88;126785;1098;62646;-90
2021/07/20 16:18:32;;;;;;;;;;;;;;;26.35;51.80;96878.75;126697;1098;62668;-89
2021/07/20 16:21:02;;;;;;;;;;;;;;;26.36;51.89;96877.70;126704;1098;62636;-89
2021/07/20 16:23:30;;;;;;;;;;;;;;;26.36;52.05;96875.83;126722;1098;62675;-90
2021/07/20 16:26:04;;;;;;;;;;;;;;;26.37;51.63;96877.46;126702;1098;62840;-89
2021/07/20 16:28:32;;;;;;;;;;;;;;;26.37;51.74;96879.33;126934;1098;62559;-90
2021/07/20 16:31:00;;;;;;;;;;;;;;;26.37;51.92;96882.82;126999;1098;62613;-91
2021/07/20 16:33:27;;;;;;;;;;;;;;;26.39;52.05;96882.59;126867;1098;62663;-90
2021/07/20 16:35:57;;;;;;;;;;;;;;;26.39;52.13;96888.80;127003;1097;62610;-91
2021/07/20 16:38:25;;;;;;;;;;;;;;;26.37;52.03;96880.14;126843;1098;62599;-88
2021/07/20 16:41:03;;;;;;;;;;;;;;;26.37;52.10;96893.53;126989;1098;62671;-88
2021/07/20 16:43:30;;;;;;;;;;;;;;;26.36;52.07;96886.55;126809;1098;62696;-89
2021/07/20 16:46:02;;;;;;;;;;;;;;;26.36;52.14;96889.23;126900;1098;62574;-88
2021/07/20 16:48:34;;;;;;;;;;;;;;;26.34;52.25;96885.13;127636;1098;62616;-89
2021/07/20 16:51:10;;;;;;;;;;;;;;;26.34;52.09;96888.62;127561;1096;62565;-89
2021/07/20 16:53:42;;;;;;;;;;;;;;;26.35;52.01;96887.59;127228;1098;62645;-90
2021/07/20 16:56:10;;;;;;;;;;;;;;;26.35;51.87;96887.59;127104;1098;62669;-88
2021/07/20 16:58:41;;;;;;;;;;;;;;;26.29;52.30;96888.47;127287;1098;62598;-91
2021/07/20 17:01:08;;;;;;;;;;;;;;;26.24;51.96;96891.00;127221;1097;62642;-90
2021/07/20 17:03:35;;;;;;;;;;;;;;;26.18;52.28;96896.45;127329;1097;62595;-89
2021/07/20 17:06:03;;;;;;;;;;;;;;;26.13;52.27;96899.80;127415;1098;62617;-88
2021/07/20 17:08:30;;;;;;;;;;;;;;;26.11;52.60;96902.70;127351;1098;62636;-90
2021/07/20 17:10:57;;;;;;;;;;;;;;;26.10;52.65;96901.05;127148;1098;62694;-89
2021/07/20 17:13:25;;;;;;;;;;;;;;;26.09;52.71;96906.63;127156;1095;62628;-89
2021/07/20 17:15:52;;;;;;;;;;;;;;;26.08;52.75;96903.14;127282;1095;62575;-90
2021/07/20 17:18:19;;;;;;;;;;;;;;;26.06;53.12;96909.74;127077;1095;62590;-89
2021/07/20 17:20:53;;;;;;;;;;;;;;;26.05;52.89;96910.80;127103;1095;62777;-90
2021/07/20 17:23:20;;;;;;;;;;;;;;;26.05;52.84;96913.47;127121;1095;62702;-88
2021/07/20 17:25:47;;;;;;;;;;;;;;;26.05;52.69;96908.93;127183;1095;62630;-91
2021/07/20 17:28:17;;;;;;;;;;;;;;;26.03;52.87;96910.20;127216;1095;62626;-90
2021/07/20 17:30:44;;;;;;;;;;;;;;;26.02;52.91;96909.39;127216;1095;62629;-91
2021/07/20 17:33:17;;;;;;;;;;;;;;;26.02;52.77;96924.61;127140;1095;62595;-88
2021/07/20 17:35:44;;;;;;;;;;;;;;;26.00;52.74;96929.38;127265;1095;62559;-90
2021/07/20 17:38:11;;;;;;;;;;;;;;;25.96;52.62;96933.54;127166;1095;62733;-90
2021/07/20 17:40:38;;;;;;;;;;;;;;;25.91;52.66;96931.52;127338;1094;62626;-91
2021/07/20 17:43:06;;;;;;;;;;;;;;;25.86;53.02;96926.83;127016;1098;62726;-89
2021/07/20 17:45:34;;;;;;;;;;;;;;;25.81;53.14;96925.86;127141;1096;62626;-91
2021/07/20 17:48:01;;;;;;;;;;;;;;;25.80;52.95;96932.25;127099;1098;62687;-89
2021/07/20 17:50:29;;;;;;;;;;;;;;;25.78;53.28;96940.48;127196;1098;62597;-90
2021/07/20 18:02:20;;;;;;;;;;;;;;;25.72;53.22;96956.58;126801;1098;62912;-92
2021/07/20 18:05:09;;;;;;;;;;;;;;;25.70;53.16;96954.13;126955;1098;62652;-92
2021/07/20 18:08:03;;;;;;;;;;;;;;;25.65;53.37;96959.30;126769;1100;62588;-90
2021/07/20 18:10:54;;;;;;;;;;;;;;;25.63;53.60;96967.55;126546;1100;62607;-90
2021/07/20 18:13:27;;;;;;;;;;;;;;;25.61;53.58;96976.84;126634;1101;63045;-91
2021/07/20 18:15:55;;;;;;;;;;;;;;;25.57;53.68;96968.43;126582;1101;62741;-89
2021/07/20 18:18:22;;;;;;;;;;;;;;;25.53;53.94;96975.25;126714;1101;62745;-90
2021/07/20 18:20:51;;;;;;;;;;;;;;;25.52;54.04;96983.50;126887;1101;62652;-90
2021/07/20 18:23:18;;;;;;;;;;;;;;;25.52;53.77;96988.85;126977;1101;62627;-90
2021/07/20 18:25:45;;;;;;;;;;;;;;;25.50;53.98;96985.55;126818;1100;62639;-90
2021/07/20 18:28:13;;;;;;;;;;;;;;;25.49;53.91;96989.27;126886;1101;62561;-90
2021/07/20 18:30:40;;;;;;;;;;;;;;;25.47;54.01;96985.98;126803;1101;62562;-90
2021/07/20 18:33:08;;;;;;;;;;;;;;;25.47;53.93;96992.17;126852;1101;62588;-91
2021/07/20 18:35:35;;;;;;;;;;;;;;;25.48;53.81;96988.45;126770;1101;62658;-90
2021/07/20 18:38:02;;;;;;;;;;;;;;;25.48;54.13;96998.34;126812;1101;62646;-89
2021/07/20 18:40:29;;;;;;;;;;;;;;;25.46;53.93;96992.37;126940;1101;62716;-89
2021/07/20 18:42:56;;;;;;;;;;;;;;;25.45;54.00;97004.11;126780;1101;62690;-89
2021/07/20 18:45:23;;;;;;;;;;;;;;;25.46;53.71;97008.42;126872;1098;62583;-89
2021/07/20 18:47:50;;;;;;;;;;;;;;;25.43;53.76;97008.88;126833;1098;62637;-89
2021/07/20 18:50:17;;;;;;;;;;;;;;;25.43;54.08;97011.55;127031;1098;62632;-90
2021/07/20 18:52:44;;;;;;;;;;;;;;;25.42;54.15;97017.91;127043;1098;62639;-90
2021/07/20 18:55:11;;;;;;;;;;;;;;;25.40;54.12;97023.48;127110;1098;62648;-89
2021/07/20 18:57:38;;;;;;;;;;;;;;;25.39;54.08;97019.18;127108;1098;62639;-91
2021/07/20 19:00:05;;;;;;;;;;;;;;;25.40;53.74;97024.30;127113;1098;62648;-90
2021/07/20 19:02:32;;;;;;;;;;;;;;;25.40;53.63;97018.14;127355;1098;62684;-90
2021/07/20 19:05:00;;;;;;;;;;;;;;;25.39;53.74;97025.34;127368;1098;62603;-91
2021/07/20 19:07:27;;;;;;;;;;;;;;;25.41;53.74;97022.45;127165;1097;62611;-90
2021/07/20 19:09:54;;;;;;;;;;;;;;;25.40;53.91;97023.48;126998;1098;62581;-90
2021/07/20 19:12:21;;;;;;;;;;;;;;;25.41;53.90;97035.82;127207;1098;62639;-90
2021/07/20 19:14:48;;;;;;;;;;;;;;;25.43;53.61;97032.95;127189;1098;62635;-89
2021/07/20 19:17:15;;;;;;;;;;;;;;;25.45;53.74;97036.22;127164;1098;62708;-91
2021/07/20 19:19:43;;;;;;;;;;;;;;;25.45;53.93;97037.04;127247;1098;62655;-91
2021/07/20 19:22:10;;;;;;;;;;;;;;;25.45;53.79;97042.39;126939;1098;62703;-90
2021/07/20 19:24:37;;;;;;;;;;;;;;;25.46;53.57;97038.67;127083;1098;62581;-91
2021/07/20 19:27:04;;;;;;;;;;;;;;;25.46;53.50;97045.88;127029;1097;62751;-89
2021/07/20 19:29:31;;;;;;;;;;;;;;;25.45;53.00;97041.57;127083;1098;62650;-89
2021/07/20 19:31:58;;;;;;;;;;;;;;;25.42;53.57;97052.69;127007;1098;62652;-93
2021/07/20 19:34:25;;;;;;;;;;;;;;;25.39;53.47;97044.08;127023;1096;62649;-91
2021/07/20 19:36:52;;;;;;;;;;;;;;;25.39;53.50;97054.77;126977;1098;62629;-89
2021/07/20 19:39:19;;;;;;;;;;;;;;;25.39;53.55;97056.63;127105;1098;62582;-90
2021/07/20 19:41:46;;;;;;;;;;;;;;;25.39;53.36;97052.09;127139;1096;62614;-89
2021/07/20 19:44:13;;;;;;;;;;;;;;;25.39;53.33;97054.77;126705;1098;62679;-90
2021/07/20 19:46:40;;;;;;;;;;;;;;;25.36;53.54;97055.19;126650;1098;62713;-89
2021/07/20 19:49:07;;;;;;;;;;;;;;;25.33;53.49;97050.29;126646;1096;62646;-89
2021/07/20 19:51:34;;;;;;;;;;;;;;;25.31;53.34;97040.82;126751;1098;62629;-88
2021/07/20 19:54:01;;;;;;;;;;;;;;;25.29;53.44;97037.55;126756;1098;62622;-88
2021/07/20 19:56:29;;;;;;;;;;;;;;;25.27;53.57;97048.45;126531;1096;62626;-89
2021/07/20 19:58:56;;;;;;;;;;;;;;;25.25;53.51;97052.38;126756;1098;62674;-90
2021/07/20 20:01:26;;;;;;;;;;;;;;;25.23;53.10;97055.25;126678;1098;62556;-90
2021/07/20 20:03:53;;;;;;;;;;;;;;;25.22;53.29;97055.48;126753;1098;62667;-87
2021/07/20 20:06:20;;;;;;;;;;;;;;;25.19;53.74;97058.56;126726;1098;62628;-89
2021/07/20 20:08:47;;;;;;;;;;;;;;;25.14;53.34;97054.70;126784;1098;62707;-89
2021/07/20 20:11:14;;;;;;;;;;;;;;;25.13;53.42;97054.89;126775;1098;62691;-90
2021/07/20 20:13:43;;;;;;;;;;;;;;;25.10;53.88;97052.66;126690;1098;62646;-88
2021/07/20 20:16:11;;;;;;;;;;;;;;;25.08;53.55;97058.20;126640;1098;62631;-87
2021/07/20 20:18:38;;;;;;;;;;;;;;;25.04;53.75;97048.92;126669;1096;62665;-87
2021/07/20 20:21:05;;;;;;;;;;;;;;;25.03;54.03;97049.14;126556;1098;62658;-88
2021/07/20 20:23:32;;;;;;;;;;;;;;;25.01;53.68;97045.88;126700;1098;62607;-89
2021/07/20 20:25:59;;;;;;;;;;;;;;;24.99;53.87;97039.91;126728;1098;62697;-90
2021/07/20 20:28:26;;;;;;;;;;;;;;;24.98;53.86;97040.94;126835;1098;62648;-88
2021/07/20 20:30:53;;;;;;;;;;;;;;;24.98;53.92;97047.11;126996;1096;62624;-89
2021/07/20 20:33:21;;;;;;;;;;;;;;;24.98;53.93;97040.94;126994;1098;62671;-87
2021/07/20 20:35:48;;;;;;;;;;;;;;;24.97;53.84;97050.00;126932;1098;62646;-91
2021/07/20 20:38:15;;;;;;;;;;;;;;;24.94;53.36;97048.56;126964;1098;62983;-88
2021/07/20 20:40:42;;;;;;;;;;;;;;;24.94;53.53;97050.41;127024;1098;62696;-87
2021/07/20 20:43:09;;;;;;;;;;;;;;;24.92;53.74;97060.52;126811;1098;62655;-88
2021/07/20 20:45:36;;;;;;;;;;;;;;;24.89;53.53;97059.06;126841;1098;62678;-88
2021/07/20 20:48:03;;;;;;;;;;;;;;;24.84;53.34;97067.72;126769;1095;62931;-89
2021/07/20 20:50:30;;;;;;;;;;;;;;;24.82;54.15;97069.80;126655;1095;62584;-89
2021/07/20 20:52:57;;;;;;;;;;;;;;;24.79;53.88;97064.85;126716;1095;62633;-90
2021/07/20 20:55:24;;;;;;;;;;;;;;;24.77;53.46;97077.59;126822;1095;62642;-89
2021/07/20 20:57:51;;;;;;;;;;;;;;;24.76;54.03;97072.47;126740;1095;62645;-89
2021/07/20 21:00:19;;;;;;;;;;;;;;;24.75;53.96;97076.99;126880;1095;62615;-89
2021/07/20 21:02:47;;;;;;;;;;;;;;;24.76;53.74;97075.95;127008;1095;62664;-94
2021/07/20 21:05:14;;;;;;;;;;;;;;;24.79;53.36;97080.89;126964;1095;62718;-87
2021/07/20 21:07:41;;;;;;;;;;;;;;;24.79;52.96;97070.20;126970;1095;62675;-88
2021/07/20 21:10:08;;;;;;;;;;;;;;;24.76;53.35;97070.61;126872;1095;62631;-86
2021/07/20 21:12:35;;;;;;;;;;;;;;;24.76;53.42;97064.45;126927;1095;62619;-87
2021/07/20 21:15:02;;;;;;;;;;;;;;;24.77;53.54;97082.94;126635;1095;62623;-89
2021/07/20 21:17:29;;;;;;;;;;;;;;;24.75;53.32;97081.52;126883;1095;62692;-87
2021/07/20 21:19:58;;;;;;;;;;;;;;;24.76;53.14;97083.97;126839;1095;62636;-89
2021/07/20 21:22:25;;;;;;;;;;;;;;;24.75;53.38;97081.52;126822;1095;62898;-89
2021/07/20 21:24:52;;;;;;;;;;;;;;;24.75;53.68;97078.84;126613;1095;62614;-88
2021/07/20 21:27:19;;;;;;;;;;;;;;;24.76;53.05;97077.81;126655;1095;62627;-88
2021/07/20 21:29:47;;;;;;;;;;;;;;;24.71;53.62;97075.77;126709;1095;62559;-90
2021/07/20 21:32:15;;;;;;;;;;;;;;;24.69;53.08;97072.49;126652;1095;62589;-87
2021/07/20 21:34:42;;;;;;;;;;;;;;;24.65;53.72;97068.59;126598;1095;62649;-88
2021/07/20 21:37:14;;;;;;;;;;;;;;;24.63;53.34;97067.96;126623;1095;62635;-89
2021/07/20 21:39:44;;;;;;;;;;;;;;;24.58;52.79;97060.57;126652;1095;62626;-88
2021/07/20 21:42:12;;;;;;;;;;;;;;;24.52;52.71;97063.27;126845;1095;62636;-88
2021/07/20 21:44:39;;;;;;;;;;;;;;;24.45;52.24;97057.09;126854;1095;62628;-90
2021/07/20 21:47:06;;;;;;;;;;;;;;;24.34;52.54;97059.34;126780;1095;62626;-88
2021/07/20 21:49:33;;;;;;;;;;;;;;;24.21;52.45;97054.01;126784;1095;62631;-89
2021/07/20 21:52:00;;;;;;;;;;;;;;;24.07;52.79;97058.53;126639;1095;62599;-87
2021/07/20 21:54:27;;;;;;;;;;;;;;;23.96;53.16;97061.01;126688;1095;62646;-91
2021/07/20 21:56:54;;;;;;;;;;;;;;;23.92;53.26;97062.44;126616;1095;62645;-89
2021/07/20 21:59:21;;;;;;;;;;;;;;;23.89;53.47;97064.47;126696;1095;62685;-89
2021/07/20 22:01:48;;;;;;;;;;;;;;;23.89;53.66;97053.80;126688;1095;62728;-90
2021/07/20 22:04:15;;;;;;;;;;;;;;;23.90;53.94;97062.66;126614;1095;62630;-89
2021/07/20 22:06:42;;;;;;;;;;;;;;;23.91;53.67;97052.80;126716;1095;62632;-89
2021/07/20 22:09:09;;;;;;;;;;;;;;;23.91;53.86;97058.95;126653;1095;62604;-90
2021/07/20 22:11:37;;;;;;;;;;;;;;;23.92;53.96;97065.11;126733;1095;62659;-89
2021/07/20 22:14:05;;;;;;;;;;;;;;;23.92;53.99;97063.26;126697;1095;62668;-88
2021/07/20 22:16:33;;;;;;;;;;;;;;;23.94;53.70;97065.71;126640;1095;62650;-89
2021/07/20 22:19:00;;;;;;;;;;;;;;;23.94;53.99;97063.05;126682;1095;62577;-89
2021/07/20 22:21:27;;;;;;;;;;;;;;;23.95;54.03;97070.05;126632;1095;63070;-90
2021/07/20 22:23:54;;;;;;;;;;;;;;;23.95;53.95;97070.05;126660;1095;62706;-91
2021/07/20 22:26:21;;;;;;;;;;;;;;;23.93;54.26;97058.73;126641;1095;62629;-89
2021/07/20 22:28:48;;;;;;;;;;;;;;;23.92;53.91;97073.94;126625;1095;62650;-89
2021/07/20 22:31:15;;;;;;;;;;;;;;;23.88;54.11;97068.17;126741;1095;62681;-90
2021/07/20 22:33:42;;;;;;;;;;;;;;;23.85;54.26;97063.27;126654;1095;62639;-90
2021/07/20 22:36:09;;;;;;;;;;;;;;;23.83;54.15;97067.97;126602;1095;62611;-88
2021/07/20 22:38:36;;;;;;;;;;;;;;;23.83;54.44;97067.97;126698;1095;62617;-89
2021/07/20 22:41:04;;;;;;;;;;;;;;;23.83;54.32;97070.63;126654;1098;62648;-88
2021/07/20 22:43:31;;;;;;;;;;;;;;;23.83;54.60;97073.30;126653;1095;62629;-89
2021/07/20 22:45:58;;;;;;;;;;;;;;;23.83;54.55;97070.63;126646;1095;62629;-91
2021/07/20 22:48:25;;;;;;;;;;;;;;;23.84;54.46;97076.79;126748;1095;62585;-89
2021/07/20 22:50:52;;;;;;;;;;;;;;;23.85;54.73;97075.79;126622;1095;62613;-89
2021/07/20 22:53:19;;;;;;;;;;;;;;;23.87;54.44;97087.07;126725;1095;62674;-90
2021/07/20 22:55:46;;;;;;;;;;;;;;;23.86;54.48;97085.44;126779;1095;62594;-89
2021/07/20 22:58:16;;;;;;;;;;;;;;;23.84;54.47;97088.28;126706;1095;62649;-89
2021/07/20 23:00:50;;;;;;;;;;;;;;;23.82;54.31;97101.02;126638;1095;62672;-89
2021/07/20 23:03:21;;;;;;;;;;;;;;;23.80;54.26;97097.75;126688;1095;62697;-90
2021/07/20 23:05:48;;;;;;;;;;;;;;;23.78;54.55;97099.78;126700;1095;62668;-90
2021/07/20 23:08:15;;;;;;;;;;;;;;;23.78;54.37;97102.45;126660;1095;62703;-88
2021/07/20 23:10:46;;;;;;;;;;;;;;;23.78;54.63;97097.11;126653;1095;62966;-90
2021/07/20 23:13:13;;;;;;;;;;;;;;;23.77;54.34;97092.80;126714;1095;62636;-89
2021/07/20 23:15:41;;;;;;;;;;;;;;;23.78;54.52;97091.77;126765;1095;62616;-90
2021/07/20 23:18:09;;;;;;;;;;;;;;;23.78;54.54;97094.44;126796;1095;62665;-90
2021/07/20 23:20:36;;;;;;;;;;;;;;;23.76;54.33;97085.83;126793;1095;63076;-90
2021/07/20 23:23:03;;;;;;;;;;;;;;;23.73;54.25;97091.56;126805;1095;62652;-92
2021/07/20 23:25:30;;;;;;;;;;;;;;;23.70;54.04;97091.95;126786;1095;62639;-90
2021/07/20 23:27:57;;;;;;;;;;;;;;;23.67;54.11;97091.56;126835;1095;62625;-89
2021/07/20 23:30:25;;;;;;;;;;;;;;;23.58;54.07;97088.22;126793;1094;62649;-89
2021/07/20 23:32:52;;;;;;;;;;;;;;;23.52;54.48;97087.16;127061;1095;62642;-90
2021/07/20 23:35:20;;;;;;;;;;;;;;;23.51;54.16;97090.03;126589;1095;62659;-90
2021/07/20 23:37:47;;;;;;;;;;;;;;;23.48;54.65;97093.94;126695;1095;62578;-89
2021/07/20 23:40:15;;;;;;;;;;;;;;;23.48;54.60;97093.09;126733;1095;62674;-89
2021/07/20 23:42:42;;;;;;;;;;;;;;;23.48;55.10;97093.09;126967;1095;62550;-91
2021/07/20 23:45:09;;;;;;;;;;;;;;;23.48;54.58;97088.61;126662;1095;62630;-90
2021/07/20 23:47:37;;;;;;;;;;;;;;;23.49;54.22;97092.09;127149;1095;62552;-88
2021/07/20 23:50:11;;;;;;;;;;;;;;;23.51;54.70;97098.04;126939;1095;62577;-89
2021/07/20 23:52:38;;;;;;;;;;;;;;;23.52;54.18;97097.01;126873;1095;62618;-90
2021/07/20 23:55:06;;;;;;;;;;;;;;;23.51;54.33;97090.85;126800;1095;62632;-90
2021/07/20 23:57:34;;;;;;;;;;;;;;;23.52;54.34;97094.34;126813;1095;62631;-91
